sensor_id;sensor_type;location;lat;lon;timestamp;P1;durP1;ratioP1;P2;durP2;ratioP2
67181;SDS011;54114;53.524;49.396;2022-09-01T00:01:46;7.20;;;4.57;;
67181;SDS011;54114;53.524;49.396;2022-09-01T00:04:20;6.40;;;4.45;;
67181;SDS011;54114;53.524;49.396;2022-09-01T00:06:51;6.87;;;4.62;;
67181;SDS011;54114;53.524;49.396;2022-09-01T00:09:20;12.37;;;4.43;;
67181;SDS011;54114;53.524;49.396;2022-09-01T00:11:49;8.43;;;4.78;;
67181;SDS011;54114;53.524;49.396;2022-09-01T00:14:20;10.30;;;4.68;;
67181;SDS011;54114;53.524;49.396;2022-09-01T00:16:50;10.55;;;4.53;;
67181;SDS011;54114;53.524;49.396;2022-09-01T00:19:18;7.70;;;4.30;;
67181;SDS011;54114;53.524;49.396;2022-09-01T00:21:46;5.32;;;4.18;;
67181;SDS011;54114;53.524;49.396;2022-09-01T00:24:13;4.85;;;3.97;;
67181;SDS011;54114;53.524;49.396;2022-09-01T00:26:42;6.62;;;4.60;;
67181;SDS011;54114;53.524;49.396;2022-09-01T00:29:10;6.70;;;4.68;;
67181;SDS011;54114;53.524;49.396;2022-09-01T00:31:37;5.53;;;4.30;;
67181;SDS011;54114;53.524;49.396;2022-09-01T00:34:04;7.00;;;4.80;;
67181;SDS011;54114;53.524;49.396;2022-09-01T00:36:31;9.68;;;4.40;;
67181;SDS011;54114;53.524;49.396;2022-09-01T00:38:58;7.40;;;4.68;;
67181;SDS011;54114;53.524;49.396;2022-09-01T00:41:27;7.78;;;4.40;;
67181;SDS011;54114;53.524;49.396;2022-09-01T00:43:56;6.07;;;3.78;;
67181;SDS011;54114;53.524;49.396;2022-09-01T00:46:28;5.82;;;4.50;;
67181;SDS011;54114;53.524;49.396;2022-09-01T00:49:03;6.70;;;4.30;;
67181;SDS011;54114;53.524;49.396;2022-09-01T00:51:48;7.07;;;3.95;;
67181;SDS011;54114;53.524;49.396;2022-09-01T00:54:20;4.85;;;3.83;;
67181;SDS011;54114;53.524;49.396;2022-09-01T00:56:51;4.90;;;4.15;;
67181;SDS011;54114;53.524;49.396;2022-09-01T00:59:19;5.68;;;3.90;;
67181;SDS011;54114;53.524;49.396;2022-09-01T01:01:47;7.10;;;4.15;;
67181;SDS011;54114;53.524;49.396;2022-09-01T01:04:14;5.57;;;3.83;;
67181;SDS011;54114;53.524;49.396;2022-09-01T01:06:45;5.30;;;4.07;;
67181;SDS011;54114;53.524;49.396;2022-09-01T01:09:23;5.18;;;3.97;;
67181;SDS011;54114;53.524;49.396;2022-09-01T01:11:52;6.10;;;4.47;;
67181;SDS011;54114;53.524;49.396;2022-09-01T01:14:23;5.78;;;3.90;;
67181;SDS011;54114;53.524;49.396;2022-09-01T01:16:57;5.00;;;3.87;;
67181;SDS011;54114;53.524;49.396;2022-09-01T01:25:37;7.05;;;4.10;;
67181;SDS011;54114;53.524;49.396;2022-09-01T01:28:18;7.07;;;4.25;;
67181;SDS011;54114;53.524;49.396;2022-09-01T01:30:49;7.53;;;4.15;;
67181;SDS011;54114;53.524;49.396;2022-09-01T01:33:24;7.55;;;4.30;;
67181;SDS011;54114;53.524;49.396;2022-09-01T01:36:10;5.82;;;4.32;;
67181;SDS011;54114;53.524;49.396;2022-09-01T01:38:42;8.15;;;4.72;;
67181;SDS011;54114;53.524;49.396;2022-09-01T01:41:12;9.48;;;4.35;;
67181;SDS011;54114;53.524;49.396;2022-09-01T01:43:40;5.53;;;3.90;;
67181;SDS011;54114;53.524;49.396;2022-09-01T01:46:08;7.18;;;4.20;;
67181;SDS011;54114;53.524;49.396;2022-09-01T01:48:37;7.62;;;4.25;;
67181;SDS011;54114;53.524;49.396;2022-09-01T01:51:06;6.80;;;4.03;;
67181;SDS011;54114;53.524;49.396;2022-09-01T01:53:34;4.22;;;3.45;;
67181;SDS011;54114;53.524;49.396;2022-09-01T01:56:02;6.55;;;4.50;;
67181;SDS011;54114;53.524;49.396;2022-09-01T01:58:30;6.82;;;4.25;;
67181;SDS011;54114;53.524;49.396;2022-09-01T02:00:59;4.53;;;3.83;;
67181;SDS011;54114;53.524;49.396;2022-09-01T02:03:26;4.35;;;3.50;;
67181;SDS011;54114;53.524;49.396;2022-09-01T02:06:03;6.87;;;4.12;;
67181;SDS011;54114;53.524;49.396;2022-09-01T02:08:36;4.53;;;3.62;;
67181;SDS011;54114;53.524;49.396;2022-09-01T02:11:05;4.90;;;4.07;;
67181;SDS011;54114;53.524;49.396;2022-09-01T02:13:32;4.93;;;4.05;;
67181;SDS011;54114;53.524;49.396;2022-09-01T02:16:01;6.12;;;3.92;;
67181;SDS011;54114;53.524;49.396;2022-09-01T02:18:38;6.20;;;3.70;;
67181;SDS011;54114;53.524;49.396;2022-09-01T02:21:12;4.90;;;3.37;;
67181;SDS011;54114;53.524;49.396;2022-09-01T02:23:45;7.82;;;3.72;;
67181;SDS011;54114;53.524;49.396;2022-09-01T02:26:14;5.07;;;3.95;;
67181;SDS011;54114;53.524;49.396;2022-09-01T02:28:44;6.28;;;3.62;;
67181;SDS011;54114;53.524;49.396;2022-09-01T02:31:13;6.75;;;3.70;;
67181;SDS011;54114;53.524;49.396;2022-09-01T02:33:40;6.03;;;3.87;;
67181;SDS011;54114;53.524;49.396;2022-09-01T02:36:11;6.87;;;3.72;;
67181;SDS011;54114;53.524;49.396;2022-09-01T02:38:40;4.53;;;3.72;;
67181;SDS011;54114;53.524;49.396;2022-09-01T02:41:09;7.80;;;3.83;;
67181;SDS011;54114;53.524;49.396;2022-09-01T02:43:37;6.65;;;3.90;;
67181;SDS011;54114;53.524;49.396;2022-09-01T02:46:04;8.45;;;3.95;;
67181;SDS011;54114;53.524;49.396;2022-09-01T02:48:32;8.25;;;4.15;;
67181;SDS011;54114;53.524;49.396;2022-09-01T02:51:02;5.62;;;3.90;;
67181;SDS011;54114;53.524;49.396;2022-09-01T02:53:32;5.37;;;3.50;;
67181;SDS011;54114;53.524;49.396;2022-09-01T02:56:01;7.53;;;3.17;;
67181;SDS011;54114;53.524;49.396;2022-09-01T02:58:34;4.65;;;3.42;;
67181;SDS011;54114;53.524;49.396;2022-09-01T03:01:13;6.03;;;4.00;;
67181;SDS011;54114;53.524;49.396;2022-09-01T03:03:46;5.28;;;3.55;;
67181;SDS011;54114;53.524;49.396;2022-09-01T03:06:14;6.00;;;3.58;;
67181;SDS011;54114;53.524;49.396;2022-09-01T03:08:46;8.52;;;3.53;;
67181;SDS011;54114;53.524;49.396;2022-09-01T03:11:13;7.25;;;4.25;;
67181;SDS011;54114;53.524;49.396;2022-09-01T03:13:39;6.97;;;3.37;;
67181;SDS011;54114;53.524;49.396;2022-09-01T03:16:08;4.90;;;3.40;;
67181;SDS011;54114;53.524;49.396;2022-09-01T03:18:36;5.78;;;3.53;;
67181;SDS011;54114;53.524;49.396;2022-09-01T03:21:04;7.07;;;3.30;;
67181;SDS011;54114;53.524;49.396;2022-09-01T03:23:32;10.93;;;3.45;;
67181;SDS011;54114;53.524;49.396;2022-09-01T03:26:02;8.55;;;3.40;;
67181;SDS011;54114;53.524;49.396;2022-09-01T03:28:29;13.57;;;3.40;;
67181;SDS011;54114;53.524;49.396;2022-09-01T03:30:56;5.55;;;3.60;;
67181;SDS011;54114;53.524;49.396;2022-09-01T03:33:24;8.88;;;3.58;;
67181;SDS011;54114;53.524;49.396;2022-09-01T03:35:53;4.60;;;3.42;;
67181;SDS011;54114;53.524;49.396;2022-09-01T03:38:21;5.00;;;2.95;;
67181;SDS011;54114;53.524;49.396;2022-09-01T03:40:51;5.57;;;3.30;;
67181;SDS011;54114;53.524;49.396;2022-09-01T03:43:30;8.02;;;3.58;;
67181;SDS011;54114;53.524;49.396;2022-09-01T03:45:58;12.40;;;3.87;;
67181;SDS011;54114;53.524;49.396;2022-09-01T03:48:26;7.28;;;3.50;;
67181;SDS011;54114;53.524;49.396;2022-09-01T03:50:56;4.95;;;3.20;;
67181;SDS011;54114;53.524;49.396;2022-09-01T03:53:29;8.07;;;3.50;;
67181;SDS011;54114;53.524;49.396;2022-09-01T03:56:02;7.60;;;3.37;;
67181;SDS011;54114;53.524;49.396;2022-09-01T03:58:30;5.87;;;3.42;;
67181;SDS011;54114;53.524;49.396;2022-09-01T04:00:58;10.75;;;3.42;;
67181;SDS011;54114;53.524;49.396;2022-09-01T04:03:28;4.85;;;3.33;;
67181;SDS011;54114;53.524;49.396;2022-09-01T04:05:59;4.97;;;3.53;;
67181;SDS011;54114;53.524;49.396;2022-09-01T04:08:27;16.60;;;3.58;;
67181;SDS011;54114;53.524;49.396;2022-09-01T04:10:56;4.97;;;3.25;;
67181;SDS011;54114;53.524;49.396;2022-09-01T04:13:28;10.07;;;3.50;;
67181;SDS011;54114;53.524;49.396;2022-09-01T04:16:00;3.87;;;3.12;;
67181;SDS011;54114;53.524;49.396;2022-09-01T04:18:27;7.80;;;3.58;;
67181;SDS011;54114;53.524;49.396;2022-09-01T04:20:56;7.43;;;3.40;;
67181;SDS011;54114;53.524;49.396;2022-09-01T04:23:28;4.80;;;3.22;;
67181;SDS011;54114;53.524;49.396;2022-09-01T04:26:05;18.30;;;3.05;;
67181;SDS011;54114;53.524;49.396;2022-09-01T04:28:37;7.03;;;2.92;;
67181;SDS011;54114;53.524;49.396;2022-09-01T04:31:13;11.43;;;2.78;;
67181;SDS011;54114;53.524;49.396;2022-09-01T04:33:44;5.47;;;2.97;;
67181;SDS011;54114;53.524;49.396;2022-09-01T04:36:18;4.45;;;3.00;;
67181;SDS011;54114;53.524;49.396;2022-09-01T04:38:49;4.82;;;2.90;;
67181;SDS011;54114;53.524;49.396;2022-09-01T04:41:26;10.95;;;3.08;;
67181;SDS011;54114;53.524;49.396;2022-09-01T04:43:56;8.90;;;3.15;;
67181;SDS011;54114;53.524;49.396;2022-09-01T04:46:29;16.00;;;3.20;;
67181;SDS011;54114;53.524;49.396;2022-09-01T04:49:01;4.70;;;2.53;;
67181;SDS011;54114;53.524;49.396;2022-09-01T04:51:38;6.10;;;2.90;;
67181;SDS011;54114;53.524;49.396;2022-09-01T04:54:08;6.72;;;2.50;;
67181;SDS011;54114;53.524;49.396;2022-09-01T04:56:41;7.93;;;2.67;;
67181;SDS011;54114;53.524;49.396;2022-09-01T04:59:11;7.22;;;2.75;;
67181;SDS011;54114;53.524;49.396;2022-09-01T05:01:39;11.20;;;2.97;;
67181;SDS011;54114;53.524;49.396;2022-09-01T05:04:10;16.17;;;3.85;;
67181;SDS011;54114;53.524;49.396;2022-09-01T05:06:46;2.58;;;2.37;;
67181;SDS011;54114;53.524;49.396;2022-09-01T05:09:26;15.02;;;3.03;;
67181;SDS011;54114;53.524;49.396;2022-09-01T05:11:54;4.95;;;2.22;;
67181;SDS011;54114;53.524;49.396;2022-09-01T05:14:23;9.43;;;2.35;;
67181;SDS011;54114;53.524;49.396;2022-09-01T05:16:54;4.35;;;2.40;;
67181;SDS011;54114;53.524;49.396;2022-09-01T05:19:26;4.60;;;2.45;;
67181;SDS011;54114;53.524;49.396;2022-09-01T05:21:54;6.80;;;2.33;;
67181;SDS011;54114;53.524;49.396;2022-09-01T05:24:23;4.90;;;2.37;;
67181;SDS011;54114;53.524;49.396;2022-09-01T05:26:54;10.13;;;2.47;;
67181;SDS011;54114;53.524;49.396;2022-09-01T05:29:22;7.28;;;2.03;;
67181;SDS011;54114;53.524;49.396;2022-09-01T05:31:52;3.62;;;2.70;;
67181;SDS011;54114;53.524;49.396;2022-09-01T05:34:24;5.53;;;2.45;;
67181;SDS011;54114;53.524;49.396;2022-09-01T05:36:51;7.57;;;2.58;;
67181;SDS011;54114;53.524;49.396;2022-09-01T05:39:22;6.03;;;2.28;;
67181;SDS011;54114;53.524;49.396;2022-09-01T05:41:49;2.85;;;2.40;;
67181;SDS011;54114;53.524;49.396;2022-09-01T05:44:18;7.97;;;2.50;;
67181;SDS011;54114;53.524;49.396;2022-09-01T05:46:49;4.22;;;2.15;;
67181;SDS011;54114;53.524;49.396;2022-09-01T05:49:17;4.93;;;2.40;;
67181;SDS011;54114;53.524;49.396;2022-09-01T05:51:45;8.55;;;2.30;;
67181;SDS011;54114;53.524;49.396;2022-09-01T05:54:17;1.98;;;1.73;;
67181;SDS011;54114;53.524;49.396;2022-09-01T05:56:47;2.70;;;2.10;;
67181;SDS011;54114;53.524;49.396;2022-09-01T05:59:14;3.37;;;2.10;;
67181;SDS011;54114;53.524;49.396;2022-09-01T06:01:42;2.80;;;2.12;;
67181;SDS011;54114;53.524;49.396;2022-09-01T06:04:12;6.22;;;2.10;;
67181;SDS011;54114;53.524;49.396;2022-09-01T06:06:43;2.85;;;1.85;;
67181;SDS011;54114;53.524;49.396;2022-09-01T06:09:14;5.22;;;1.83;;
67181;SDS011;54114;53.524;49.396;2022-09-01T06:11:48;2.17;;;1.90;;
67181;SDS011;54114;53.524;49.396;2022-09-01T06:14:15;5.45;;;2.10;;
67181;SDS011;54114;53.524;49.396;2022-09-01T06:16:42;2.08;;;1.48;;
67181;SDS011;54114;53.524;49.396;2022-09-01T06:19:11;1.90;;;1.48;;
67181;SDS011;54114;53.524;49.396;2022-09-01T06:21:39;4.00;;;1.87;;
67181;SDS011;54114;53.524;49.396;2022-09-01T06:24:05;3.35;;;1.65;;
67181;SDS011;54114;53.524;49.396;2022-09-01T06:26:33;5.62;;;2.95;;
67181;SDS011;54114;53.524;49.396;2022-09-01T06:29:04;2.58;;;1.62;;
67181;SDS011;54114;53.524;49.396;2022-09-01T06:31:35;3.30;;;1.60;;
67181;SDS011;54114;53.524;49.396;2022-09-01T06:34:04;2.90;;;1.70;;
67181;SDS011;54114;53.524;49.396;2022-09-01T06:36:35;4.45;;;1.85;;
67181;SDS011;54114;53.524;49.396;2022-09-01T06:39:05;2.65;;;1.50;;
67181;SDS011;54114;53.524;49.396;2022-09-01T06:41:33;2.53;;;1.60;;
67181;SDS011;54114;53.524;49.396;2022-09-01T06:44:04;3.05;;;1.98;;
67181;SDS011;54114;53.524;49.396;2022-09-01T06:46:31;2.55;;;1.73;;
67181;SDS011;54114;53.524;49.396;2022-09-01T06:48:58;2.55;;;1.77;;
67181;SDS011;54114;53.524;49.396;2022-09-01T06:51:26;1.95;;;1.52;;
67181;SDS011;54114;53.524;49.396;2022-09-01T06:53:56;4.43;;;1.90;;
67181;SDS011;54114;53.524;49.396;2022-09-01T06:56:26;2.67;;;1.67;;
67181;SDS011;54114;53.524;49.396;2022-09-01T06:58:56;2.37;;;1.90;;
67181;SDS011;54114;53.524;49.396;2022-09-01T07:01:23;2.65;;;1.77;;
67181;SDS011;54114;53.524;49.396;2022-09-01T07:03:52;3.87;;;1.85;;
67181;SDS011;54114;53.524;49.396;2022-09-01T07:06:24;1.70;;;1.58;;
67181;SDS011;54114;53.524;49.396;2022-09-01T07:08:56;2.87;;;1.73;;
67181;SDS011;54114;53.524;49.396;2022-09-01T07:11:26;5.03;;;1.70;;
67181;SDS011;54114;53.524;49.396;2022-09-01T07:13:58;2.92;;;2.03;;
67181;SDS011;54114;53.524;49.396;2022-09-01T07:16:29;2.45;;;1.80;;
67181;SDS011;54114;53.524;49.396;2022-09-01T07:19:00;5.25;;;2.22;;
67181;SDS011;54114;53.524;49.396;2022-09-01T07:21:28;5.00;;;1.80;;
67181;SDS011;54114;53.524;49.396;2022-09-01T07:23:56;2.92;;;1.87;;
67181;SDS011;54114;53.524;49.396;2022-09-01T07:26:26;6.32;;;2.70;;
67181;SDS011;54114;53.524;49.396;2022-09-01T07:28:54;3.83;;;2.08;;
67181;SDS011;54114;53.524;49.396;2022-09-01T07:31:23;4.35;;;3.45;;
67181;SDS011;54114;53.524;49.396;2022-09-01T07:33:57;3.22;;;1.67;;
67181;SDS011;54114;53.524;49.396;2022-09-01T07:36:28;3.67;;;2.08;;
67181;SDS011;54114;53.524;49.396;2022-09-01T07:38:56;3.00;;;1.77;;
67181;SDS011;54114;53.524;49.396;2022-09-01T07:41:23;2.78;;;1.80;;
67181;SDS011;54114;53.524;49.396;2022-09-01T07:43:51;1.98;;;1.80;;
67181;SDS011;54114;53.524;49.396;2022-09-01T07:46:21;2.50;;;1.90;;
67181;SDS011;54114;53.524;49.396;2022-09-01T07:48:51;3.87;;;2.05;;
67181;SDS011;54114;53.524;49.396;2022-09-01T07:51:20;5.50;;;1.70;;
67181;SDS011;54114;53.524;49.396;2022-09-01T07:53:49;6.12;;;1.50;;
67181;SDS011;54114;53.524;49.396;2022-09-01T07:56:17;6.07;;;1.48;;
67181;SDS011;54114;53.524;49.396;2022-09-01T07:58:45;1.90;;;1.40;;
67181;SDS011;54114;53.524;49.396;2022-09-01T08:01:15;2.67;;;1.30;;
67181;SDS011;54114;53.524;49.396;2022-09-01T08:03:45;1.30;;;1.10;;
67181;SDS011;54114;53.524;49.396;2022-09-01T08:06:16;3.33;;;1.77;;
67181;SDS011;54114;53.524;49.396;2022-09-01T08:08:46;2.00;;;1.15;;
67181;SDS011;54114;53.524;49.396;2022-09-01T08:11:15;2.47;;;1.50;;
67181;SDS011;54114;53.524;49.396;2022-09-01T08:13:50;2.17;;;1.33;;
67181;SDS011;54114;53.524;49.396;2022-09-01T08:16:18;2.08;;;1.58;;
67181;SDS011;54114;53.524;49.396;2022-09-01T08:18:46;3.87;;;1.77;;
67181;SDS011;54114;53.524;49.396;2022-09-01T08:21:14;5.28;;;1.65;;
67181;SDS011;54114;53.524;49.396;2022-09-01T08:23:42;2.87;;;1.45;;
67181;SDS011;54114;53.524;49.396;2022-09-01T08:26:11;2.83;;;1.67;;
67181;SDS011;54114;53.524;49.396;2022-09-01T08:28:40;3.33;;;1.67;;
67181;SDS011;54114;53.524;49.396;2022-09-01T08:31:08;3.20;;;1.60;;
67181;SDS011;54114;53.524;49.396;2022-09-01T08:33:38;2.03;;;1.55;;
67181;SDS011;54114;53.524;49.396;2022-09-01T08:36:07;3.87;;;1.98;;
67181;SDS011;54114;53.524;49.396;2022-09-01T08:38:36;3.80;;;1.25;;
67181;SDS011;54114;53.524;49.396;2022-09-01T08:41:04;10.82;;;1.87;;
67181;SDS011;54114;53.524;49.396;2022-09-01T08:44:02;5.85;;;1.80;;
67181;SDS011;54114;53.524;49.396;2022-09-01T08:46:38;2.40;;;1.52;;
67181;SDS011;54114;53.524;49.396;2022-09-01T08:49:28;2.55;;;1.60;;
67181;SDS011;54114;53.524;49.396;2022-09-01T08:52:13;1.77;;;1.45;;
67181;SDS011;54114;53.524;49.396;2022-09-01T08:55:10;2.92;;;2.10;;
67181;SDS011;54114;53.524;49.396;2022-09-01T08:57:53;3.83;;;1.70;;
67181;SDS011;54114;53.524;49.396;2022-09-01T09:00:23;4.62;;;1.65;;
67181;SDS011;54114;53.524;49.396;2022-09-01T09:11:34;2.58;;;1.80;;
67181;SDS011;54114;53.524;49.396;2022-09-01T09:17:27;5.90;;;2.58;;
67181;SDS011;54114;53.524;49.396;2022-09-01T09:22:26;2.55;;;1.65;;
67181;SDS011;54114;53.524;49.396;2022-09-01T09:25:09;3.62;;;1.85;;
67181;SDS011;54114;53.524;49.396;2022-09-01T09:27:48;2.83;;;1.95;;
67181;SDS011;54114;53.524;49.396;2022-09-01T09:32:55;3.25;;;1.77;;
67181;SDS011;54114;53.524;49.396;2022-09-01T09:41:02;5.62;;;2.25;;
67181;SDS011;54114;53.524;49.396;2022-09-01T09:43:45;3.05;;;2.00;;
67181;SDS011;54114;53.524;49.396;2022-09-01T09:46:45;5.63;;;2.10;;
67181;SDS011;54114;53.524;49.396;2022-09-01T09:49:32;3.50;;;1.90;;
67181;SDS011;54114;53.524;49.396;2022-09-01T09:54:35;11.57;;;1.73;;
67181;SDS011;54114;53.524;49.396;2022-09-01T09:59:42;3.62;;;1.92;;
67181;SDS011;54114;53.524;49.396;2022-09-01T10:02:34;3.65;;;1.75;;
67181;SDS011;54114;53.524;49.396;2022-09-01T10:05:26;4.57;;;1.90;;
67181;SDS011;54114;53.524;49.396;2022-09-01T10:08:12;4.07;;;1.80;;
67181;SDS011;54114;53.524;49.396;2022-09-01T10:11:04;9.18;;;2.22;;
67181;SDS011;54114;53.524;49.396;2022-09-01T10:13:31;11.10;;;2.58;;
67181;SDS011;54114;53.524;49.396;2022-09-01T10:16:02;5.75;;;1.65;;
67181;SDS011;54114;53.524;49.396;2022-09-01T10:18:36;5.05;;;1.75;;
67181;SDS011;54114;53.524;49.396;2022-09-01T10:21:14;3.40;;;2.00;;
67181;SDS011;54114;53.524;49.396;2022-09-01T10:24:46;2.75;;;1.85;;
67181;SDS011;54114;53.524;49.396;2022-09-01T10:26:57;3.28;;;1.83;;
67181;SDS011;54114;53.524;49.396;2022-09-01T10:32:45;3.70;;;1.67;;
67181;SDS011;54114;53.524;49.396;2022-09-01T10:35:26;3.10;;;1.77;;
67181;SDS011;54114;53.524;49.396;2022-09-01T10:37:54;5.15;;;1.80;;
67181;SDS011;54114;53.524;49.396;2022-09-01T10:40:38;1.90;;;1.40;;
67181;SDS011;54114;53.524;49.396;2022-09-01T10:48:49;3.55;;;1.90;;
67181;SDS011;54114;53.524;49.396;2022-09-01T10:53:45;4.87;;;2.00;;
67181;SDS011;54114;53.524;49.396;2022-09-01T10:56:22;3.12;;;1.80;;
67181;SDS011;54114;53.524;49.396;2022-09-01T10:59:10;4.37;;;1.90;;
67181;SDS011;54114;53.524;49.396;2022-09-01T11:04:22;4.05;;;1.85;;
67181;SDS011;54114;53.524;49.396;2022-09-01T11:09:44;6.57;;;2.00;;
67181;SDS011;54114;53.524;49.396;2022-09-01T11:12:36;6.32;;;2.30;;
67181;SDS011;54114;53.524;49.396;2022-09-01T11:15:39;3.22;;;2.08;;
67181;SDS011;54114;53.524;49.396;2022-09-01T11:18:14;4.60;;;2.03;;
67181;SDS011;54114;53.524;49.396;2022-09-01T11:20:47;2.62;;;1.95;;
67181;SDS011;54114;53.524;49.396;2022-09-01T11:23:28;4.87;;;2.30;;
67181;SDS011;54114;53.524;49.396;2022-09-01T11:28:59;2.92;;;2.15;;
67181;SDS011;54114;53.524;49.396;2022-09-01T11:31:41;4.57;;;2.53;;
67181;SDS011;54114;53.524;49.396;2022-09-01T11:34:11;7.32;;;3.42;;
67181;SDS011;54114;53.524;49.396;2022-09-01T11:36:53;4.12;;;2.22;;
67181;SDS011;54114;53.524;49.396;2022-09-01T11:39:31;5.40;;;1.67;;
67181;SDS011;54114;53.524;49.396;2022-09-01T11:45:16;3.62;;;1.60;;
67181;SDS011;54114;53.524;49.396;2022-09-01T11:47:48;6.15;;;1.62;;
67181;SDS011;54114;53.524;49.396;2022-09-01T11:55:29;1.95;;;1.30;;
67181;SDS011;54114;53.524;49.396;2022-09-01T11:58:27;2.50;;;1.60;;
67181;SDS011;54114;53.524;49.396;2022-09-01T12:01:10;2.28;;;1.37;;
67181;SDS011;54114;53.524;49.396;2022-09-01T12:03:39;2.47;;;1.48;;
67181;SDS011;54114;53.524;49.396;2022-09-01T12:06:08;3.60;;;1.80;;
67181;SDS011;54114;53.524;49.396;2022-09-01T12:08:39;1.90;;;1.33;;
67181;SDS011;54114;53.524;49.396;2022-09-01T12:11:11;3.37;;;1.30;;
67181;SDS011;54114;53.524;49.396;2022-09-01T12:13:56;3.17;;;1.62;;
67181;SDS011;54114;53.524;49.396;2022-09-01T12:16:29;3.15;;;1.37;;
67181;SDS011;54114;53.524;49.396;2022-09-01T12:18:59;1.92;;;1.50;;
67181;SDS011;54114;53.524;49.396;2022-09-01T12:24:12;6.45;;;1.70;;
67181;SDS011;54114;53.524;49.396;2022-09-01T12:26:43;3.20;;;1.35;;
67181;SDS011;54114;53.524;49.396;2022-09-01T12:29:12;2.92;;;1.35;;
67181;SDS011;54114;53.524;49.396;2022-09-01T12:31:41;3.37;;;1.45;;
67181;SDS011;54114;53.524;49.396;2022-09-01T12:37:08;3.37;;;1.75;;
67181;SDS011;54114;53.524;49.396;2022-09-01T12:39:44;2.28;;;1.33;;
67181;SDS011;54114;53.524;49.396;2022-09-01T12:47:47;3.87;;;1.85;;
67181;SDS011;54114;53.524;49.396;2022-09-01T12:52:44;3.62;;;3.15;;
67181;SDS011;54114;53.524;49.396;2022-09-01T12:55:23;2.58;;;1.92;;
67181;SDS011;54114;53.524;49.396;2022-09-01T12:58:02;2.95;;;1.87;;
67181;SDS011;54114;53.524;49.396;2022-09-01T13:00:33;1.60;;;1.30;;
67181;SDS011;54114;53.524;49.396;2022-09-01T13:03:30;4.32;;;1.48;;
67181;SDS011;54114;53.524;49.396;2022-09-01T13:05:58;1.98;;;1.30;;
67181;SDS011;54114;53.524;49.396;2022-09-01T13:08:28;2.55;;;2.10;;
67181;SDS011;54114;53.524;49.396;2022-09-01T13:11:01;10.55;;;2.45;;
67181;SDS011;54114;53.524;49.396;2022-09-01T13:13:32;3.22;;;2.42;;
67181;SDS011;54114;53.524;49.396;2022-09-01T13:16:02;3.97;;;2.22;;
67181;SDS011;54114;53.524;49.396;2022-09-01T13:18:37;2.42;;;2.03;;
67181;SDS011;54114;53.524;49.396;2022-09-01T13:21:06;10.55;;;2.50;;
67181;SDS011;54114;53.524;49.396;2022-09-01T13:23:33;3.55;;;2.03;;
67181;SDS011;54114;53.524;49.396;2022-09-01T13:25:59;2.50;;;1.90;;
67181;SDS011;54114;53.524;49.396;2022-09-01T13:28:27;5.57;;;2.20;;
67181;SDS011;54114;53.524;49.396;2022-09-01T13:30:55;3.17;;;2.00;;
67181;SDS011;54114;53.524;49.396;2022-09-01T13:33:25;3.42;;;2.10;;
67181;SDS011;54114;53.524;49.396;2022-09-01T13:35:52;4.43;;;2.00;;
67181;SDS011;54114;53.524;49.396;2022-09-01T13:38:20;4.43;;;2.60;;
67181;SDS011;54114;53.524;49.396;2022-09-01T13:40:48;4.57;;;2.37;;
67181;SDS011;54114;53.524;49.396;2022-09-01T13:43:20;8.63;;;2.60;;
67181;SDS011;54114;53.524;49.396;2022-09-01T13:45:48;6.55;;;2.08;;
67181;SDS011;54114;53.524;49.396;2022-09-01T13:48:15;3.17;;;1.92;;
67181;SDS011;54114;53.524;49.396;2022-09-01T13:50:46;5.62;;;2.55;;
67181;SDS011;54114;53.524;49.396;2022-09-01T13:55:44;4.72;;;2.25;;
67181;SDS011;54114;53.524;49.396;2022-09-01T13:58:10;3.53;;;2.05;;
67181;SDS011;54114;53.524;49.396;2022-09-01T14:00:39;5.80;;;2.50;;
67181;SDS011;54114;53.524;49.396;2022-09-01T14:03:11;4.32;;;2.35;;
67181;SDS011;54114;53.524;49.396;2022-09-01T14:05:45;6.07;;;2.60;;
67181;SDS011;54114;53.524;49.396;2022-09-01T14:08:14;9.98;;;3.70;;
67181;SDS011;54114;53.524;49.396;2022-09-01T14:10:44;4.05;;;2.08;;
67181;SDS011;54114;53.524;49.396;2022-09-01T14:13:15;3.50;;;2.20;;
67181;SDS011;54114;53.524;49.396;2022-09-01T14:15:49;6.07;;;2.42;;
67181;SDS011;54114;53.524;49.396;2022-09-01T14:18:18;4.85;;;1.90;;
67181;SDS011;54114;53.524;49.396;2022-09-01T14:20:48;6.12;;;2.00;;
67181;SDS011;54114;53.524;49.396;2022-09-01T14:23:16;4.37;;;2.35;;
67181;SDS011;54114;53.524;49.396;2022-09-01T14:25:49;2.65;;;1.95;;
67181;SDS011;54114;53.524;49.396;2022-09-01T14:28:18;3.35;;;2.20;;
67181;SDS011;54114;53.524;49.396;2022-09-01T14:30:47;4.60;;;2.15;;
67181;SDS011;54114;53.524;49.396;2022-09-01T14:33:15;5.03;;;1.90;;
67181;SDS011;54114;53.524;49.396;2022-09-01T14:35:44;4.03;;;1.87;;
67181;SDS011;54114;53.524;49.396;2022-09-01T14:38:14;5.87;;;2.03;;
67181;SDS011;54114;53.524;49.396;2022-09-01T14:40:41;7.07;;;2.37;;
67181;SDS011;54114;53.524;49.396;2022-09-01T14:43:11;3.85;;;2.40;;
67181;SDS011;54114;53.524;49.396;2022-09-01T14:45:39;6.60;;;2.50;;
67181;SDS011;54114;53.524;49.396;2022-09-01T14:48:10;6.10;;;2.95;;
67181;SDS011;54114;53.524;49.396;2022-09-01T14:50:41;5.05;;;2.70;;
67181;SDS011;54114;53.524;49.396;2022-09-01T14:53:11;12.00;;;3.58;;
67181;SDS011;54114;53.524;49.396;2022-09-01T14:55:37;7.97;;;3.00;;
67181;SDS011;54114;53.524;49.396;2022-09-01T14:58:05;4.68;;;3.08;;
67181;SDS011;54114;53.524;49.396;2022-09-01T15:00:32;8.13;;;2.90;;
67181;SDS011;54114;53.524;49.396;2022-09-01T15:03:03;5.10;;;2.50;;
67181;SDS011;54114;53.524;49.396;2022-09-01T15:05:30;9.32;;;2.80;;
67181;SDS011;54114;53.524;49.396;2022-09-01T15:07:57;5.50;;;2.67;;
67181;SDS011;54114;53.524;49.396;2022-09-01T15:10:24;8.32;;;2.80;;
67181;SDS011;54114;53.524;49.396;2022-09-01T15:12:52;7.45;;;3.37;;
67181;SDS011;54114;53.524;49.396;2022-09-01T15:15:22;6.05;;;3.00;;
67181;SDS011;54114;53.524;49.396;2022-09-01T15:17:50;8.35;;;2.75;;
67181;SDS011;54114;53.524;49.396;2022-09-01T15:20:17;4.28;;;2.70;;
67181;SDS011;54114;53.524;49.396;2022-09-01T15:23:03;9.00;;;2.92;;
67181;SDS011;54114;53.524;49.396;2022-09-01T15:25:30;7.40;;;4.22;;
67181;SDS011;54114;53.524;49.396;2022-09-01T15:27:57;9.05;;;2.90;;
67181;SDS011;54114;53.524;49.396;2022-09-01T15:30:24;7.10;;;2.50;;
67181;SDS011;54114;53.524;49.396;2022-09-01T15:32:52;5.82;;;3.37;;
67181;SDS011;54114;53.524;49.396;2022-09-01T15:35:20;6.93;;;3.28;;
67181;SDS011;54114;53.524;49.396;2022-09-01T15:37:48;9.48;;;2.45;;
67181;SDS011;54114;53.524;49.396;2022-09-01T15:40:16;5.50;;;2.90;;
67181;SDS011;54114;53.524;49.396;2022-09-01T15:42:44;10.20;;;3.17;;
67181;SDS011;54114;53.524;49.396;2022-09-01T15:45:12;10.65;;;3.50;;
67181;SDS011;54114;53.524;49.396;2022-09-01T15:47:43;5.40;;;2.70;;
67181;SDS011;54114;53.524;49.396;2022-09-01T15:50:13;7.97;;;2.95;;
67181;SDS011;54114;53.524;49.396;2022-09-01T15:53:01;6.43;;;2.90;;
67181;SDS011;54114;53.524;49.396;2022-09-01T15:55:42;10.48;;;3.20;;
67181;SDS011;54114;53.524;49.396;2022-09-01T15:58:12;6.85;;;4.05;;
67181;SDS011;54114;53.524;49.396;2022-09-01T16:00:41;6.40;;;3.40;;
67181;SDS011;54114;53.524;49.396;2022-09-01T16:03:09;7.50;;;3.10;;
67181;SDS011;54114;53.524;49.396;2022-09-01T16:05:38;5.55;;;2.95;;
67181;SDS011;54114;53.524;49.396;2022-09-01T16:08:05;9.57;;;4.28;;
67181;SDS011;54114;53.524;49.396;2022-09-01T16:10:37;6.28;;;3.50;;
67181;SDS011;54114;53.524;49.396;2022-09-01T16:13:05;15.23;;;4.78;;
67181;SDS011;54114;53.524;49.396;2022-09-01T16:15:32;10.32;;;4.60;;
67181;SDS011;54114;53.524;49.396;2022-09-01T16:18:05;9.40;;;4.40;;